Time;durP1;ratioP1;P1;durP2;ratioP2;P2;SDS_P1;SDS_P2;PMS_P1;PMS_P2;Temp;Humidity;BMP_temperature;BMP_pressure;BME280_temperature;BME280_humidity;BME280_pressure;Samples;Min_cycle;Max_cycle;Signal;HPM_P1;HPM_P2
2023/01/10 00:02:00;;;;;;;3.47;2.67;;;4.00;99.90;;;;;;5014601;28;20196;-66
2023/01/10 00:04:26;;;;;;;3.37;2.90;;;4.00;99.90;;;;;;5002194;28;20187;-66
2023/01/10 00:06:52;;;;;;;3.70;3.30;;;4.00;99.90;;;;;;5025959;28;20190;-66
2023/01/10 00:09:17;;;;;;;3.17;2.87;;;4.00;99.90;;;;;;5021622;28;20191;-66
2023/01/10 00:14:29;;;;;;;3.13;2.77;;;4.00;99.90;;;;;;5022748;28;20190;-66
2023/01/10 00:16:56;;;;;;;4.73;2.70;;;4.00;99.90;;;;;;5010114;28;20437;-66
2023/01/10 00:19:21;;;;;;;3.20;2.90;;;4.00;99.90;;;;;;5013898;28;20473;-66
2023/01/10 00:21:47;;;;;;;3.27;2.97;;;3.90;99.90;;;;;;5009503;28;20430;-66
2023/01/10 00:24:17;;;;;;;3.47;2.60;;;3.90;99.90;;;;;;5011708;28;20186;-66
2023/01/10 00:26:49;;;;;;;2.70;2.50;;;3.90;99.90;;;;;;5022524;28;20193;-66
2023/01/10 00:29:26;;;;;;;2.37;2.17;;;3.90;99.90;;;;;;5023538;28;20473;-66
2023/01/10 00:31:52;;;;;;;3.20;2.63;;;3.90;99.90;;;;;;5021853;28;20445;-66
2023/01/10 00:34:18;;;;;;;3.53;2.50;;;3.90;99.90;;;;;;5028926;28;20500;-66
2023/01/10 00:36:46;;;;;;;3.10;2.60;;;3.90;99.90;;;;;;5025890;28;20198;-66
2023/01/10 00:39:12;;;;;;;2.43;2.23;;;3.90;99.90;;;;;;5014769;28;20466;-66
2023/01/10 01:06:18;;;;;;;2.73;2.33;;;4.00;99.90;;;;;;5021354;28;21009;-66
2023/01/10 01:08:44;;;;;;;2.43;2.07;;;4.00;99.90;;;;;;5030487;28;20485;-66
2023/01/10 01:11:09;;;;;;;3.57;2.03;;;3.90;99.90;;;;;;5015948;28;20445;-66
2023/01/10 01:13:35;;;;;;;2.63;1.70;;;3.90;99.90;;;;;;5015158;28;20191;-66
2023/01/10 01:16:01;;;;;;;2.40;1.50;;;3.90;99.90;;;;;;5019089;28;20281;-66
2023/01/10 01:18:27;;;;;;;0.90;0.90;;;3.90;99.90;;;;;;5017861;28;20210;-66
2023/01/10 01:21:01;;;;;;;0.70;0.70;;;3.90;99.90;;;;;;5035824;28;20202;-66
2023/01/10 01:23:26;;;;;;;1.43;1.00;;;3.90;99.90;;;;;;5021893;28;20523;-66
2023/01/10 01:25:53;;;;;;;1.93;1.50;;;4.00;99.90;;;;;;5034933;28;20464;-66
2023/01/10 01:28:20;;;;;;;2.10;1.37;;;4.00;99.90;;;;;;5034756;28;20191;-66
2023/01/10 01:30:46;;;;;;;1.13;1.03;;;4.00;99.90;;;;;;5030360;28;20425;-66
2023/01/10 01:33:12;;;;;;;1.03;0.90;;;4.10;99.90;;;;;;5018629;28;20444;-66
2023/01/10 01:35:41;;;;;;;0.50;0.50;;;4.10;99.90;;;;;;5019534;28;20209;-66
2023/01/10 01:38:07;;;;;;;0.40;0.20;;;4.20;98.40;;;;;;5021730;28;20233;-66
2023/01/10 01:40:32;;;;;;;0.20;0.20;;;4.20;98.10;;;;;;5034579;28;20467;-66
2023/01/10 01:42:58;;;;;;;0.20;0.20;;;4.30;96.10;;;;;;5030549;28;20186;-66
2023/01/10 01:45:37;;;;;;;0.10;0.10;;;4.30;95.20;;;;;;5034063;28;20195;-66
2023/01/10 01:48:16;;;;;;;0.20;0.20;;;4.40;91.50;;;;;;5033672;28;20224;-66
2023/01/10 01:50:51;;;;;;;0.20;0.20;;;4.40;92.00;;;;;;5021469;28;20448;-66
2023/01/10 01:53:26;;;;;;;0.23;0.23;;;4.40;91.40;;;;;;5031034;28;20436;-66
2023/01/10 01:55:54;;;;;;;0.20;0.20;;;4.50;92.30;;;;;;5045629;28;20449;-66
2023/01/10 01:58:27;;;;;;;0.27;0.27;;;4.50;92.50;;;;;;5032987;28;20519;-66
2023/01/10 02:00:53;;;;;;;0.20;0.20;;;4.60;91.90;;;;;;5038849;28;20477;-66
2023/01/10 02:03:19;;;;;;;0.20;0.20;;;4.60;94.30;;;;;;5012186;28;20916;-65
2023/01/10 02:05:45;;;;;;;0.10;0.10;;;4.70;92.00;;;;;;5023212;28;20554;-66
2023/01/10 02:08:12;;;;;;;0.10;0.10;;;4.70;92.40;;;;;;5036115;28;20758;-66
2023/01/10 02:10:45;;;;;;;0.20;0.20;;;4.70;91.40;;;;;;5004495;28;20441;-66
2023/01/10 02:13:13;;;;;;;0.20;0.20;;;4.70;83.70;;;;;;5033229;28;20437;-66
2023/01/10 02:15:39;;;;;;;0.10;0.10;;;4.90;83.60;;;;;;5043053;28;20435;-66
2023/01/10 02:18:05;;;;;;;0.10;0.10;;;4.90;81.50;;;;;;5016594;28;20470;-66
2023/01/10 02:20:50;;;;;;;0.57;0.20;;;4.90;80.10;;;;;;5024513;28;20190;-66
2023/01/10 02:23:37;;;;;;;0.73;0.20;;;5.00;77.20;;;;;;5025414;28;20506;-66
2023/01/10 02:26:06;;;;;;;0.10;0.10;;;5.00;80.00;;;;;;5015295;28;20442;-66
2023/01/10 02:28:50;;;;;;;0.20;0.20;;;5.00;81.70;;;;;;5016966;28;20497;-66
2023/01/10 02:31:50;;;;;;;0.10;0.10;;;5.00;82.70;;;;;;5034943;28;20424;-66
2023/01/10 02:34:23;;;;;;;0.10;0.10;;;4.90;86.80;;;;;;5020519;28;20439;-66
2023/01/10 02:37:04;;;;;;;0.10;0.10;;;4.90;81.00;;;;;;5027229;28;20486;-66
2023/01/10 02:39:54;;;;;;;0.10;0.10;;;5.00;77.60;;;;;;5038603;28;20461;-66
2023/01/10 02:42:40;;;;;;;0.20;0.20;;;5.00;79.50;;;;;;5031455;28;20448;-65
2023/01/10 02:45:22;;;;;;;0.33;0.30;;;5.00;74.60;;;;;;5030278;28;20411;-66
2023/01/10 02:47:48;;;;;;;2.63;0.67;;;5.00;80.60;;;;;;5016169;28;20500;-66
2023/01/10 02:50:48;;;;;;;0.10;0.10;;;5.00;73.00;;;;;;5008786;28;20437;-66
2023/01/10 02:53:33;;;;;;;0.20;0.20;;;5.10;75.10;;;;;;5031655;28;20285;-65
2023/01/10 02:56:07;;;;;;;0.10;0.10;;;5.10;76.00;;;;;;5040026;28;20436;-65
2023/01/10 02:59:12;;;;;;;0.97;0.20;;;5.10;72.30;;;;;;5026550;28;20519;-65
2023/01/10 03:01:55;;;;;;;0.10;0.10;;;5.20;69.90;;;;;;5039983;28;20481;-65
2023/01/10 03:04:39;;;;;;;0.30;0.30;;;5.20;77.00;;;;;;5031868;28;20436;-66
2023/01/10 03:07:17;;;;;;;0.27;0.20;;;5.20;71.10;;;;;;5029489;28;20484;-66
2023/01/10 03:09:45;;;;;;;0.30;0.23;;;5.20;76.10;;;;;;5024358;28;20436;-65
2023/01/10 03:12:41;;;;;;;0.20;0.20;;;5.20;74.00;;;;;;5024036;28;20421;-65
2023/01/10 03:15:09;;;;;;;0.10;0.10;;;5.30;69.60;;;;;;5022330;28;20497;-65
2023/01/10 03:17:36;;;;;;;1.90;0.20;;;5.30;72.90;;;;;;5015058;28;20434;-65
2023/01/10 03:20:05;;;;;;;1.50;0.20;;;5.30;73.80;;;;;;5021613;28;20540;-65
2023/01/10 03:22:33;;;;;;;0.23;0.20;;;5.30;71.20;;;;;;5034182;28;20424;-65
2023/01/10 03:25:02;;;;;;;0.10;0.10;;;5.20;70.70;;;;;;5032155;28;20446;-65
2023/01/10 03:28:05;;;;;;;1.30;0.10;;;5.30;72.10;;;;;;5029262;28;20427;-65
2023/01/10 03:31:03;;;;;;;0.10;0.10;;;5.30;69.10;;;;;;5032989;28;20426;-64
2023/01/10 03:33:30;;;;;;;0.10;0.10;;;5.30;71.00;;;;;;5014887;28;20480;-64
2023/01/10 03:36:32;;;;;;;0.43;0.30;;;5.30;75.80;;;;;;5023139;28;20453;-64
2023/01/10 03:39:22;;;;;;;0.10;0.10;;;5.30;71.10;;;;;;5023787;28;20500;-64
2023/01/10 03:41:48;;;;;;;0.23;0.23;;;5.30;70.40;;;;;;5015741;28;20422;-64
2023/01/10 03:44:42;;;;;;;0.10;0.10;;;5.30;72.90;;;;;;5034501;28;20417;-64
2023/01/10 03:47:31;;;;;;;1.27;0.10;;;5.30;71.40;;;;;;5022528;28;20207;-65
2023/01/10 03:50:03;;;;;;;0.20;0.20;;;5.40;66.60;;;;;;5031487;28;20457;-64
2023/01/10 03:52:31;;;;;;;0.13;0.13;;;5.50;63.70;;;;;;5017038;28;20500;-64
2023/01/10 03:54:57;;;;;;;0.10;0.10;;;5.50;72.40;;;;;;5017234;28;20425;-64
2023/01/10 03:57:24;;;;;;;0.10;0.10;;;5.40;70.30;;;;;;5012125;28;20449;-64
2023/01/10 03:59:53;;;;;;;0.10;0.10;;;5.40;73.30;;;;;;5017106;28;20481;-64
2023/01/10 04:02:19;;;;;;;0.10;0.10;;;5.30;73.00;;;;;;5038404;28;20482;-65
2023/01/10 04:04:44;;;;;;;0.10;0.10;;;5.50;67.10;;;;;;5007064;28;20465;-65
2023/01/10 04:07:10;;;;;;;0.10;0.10;;;5.50;69.60;;;;;;5028927;28;20301;-64
2023/01/10 04:09:36;;;;;;;0.10;0.10;;;5.50;69.40;;;;;;5023415;28;20230;-64
2023/01/10 04:12:02;;;;;;;0.20;0.20;;;5.50;66.10;;;;;;5026856;28;20366;-65
2023/01/10 04:14:27;;;;;;;0.10;0.10;;;5.50;67.20;;;;;;5005111;28;20222;-65
2023/01/10 04:16:54;;;;;;;0.10;0.10;;;5.50;71.00;;;;;;5004642;28;20259;-65
2023/01/10 04:19:19;;;;;;;2.00;0.20;;;5.50;63.90;;;;;;5005944;28;20220;-65
2023/01/10 04:21:45;;;;;;;0.27;0.10;;;5.60;67.40;;;;;;5022648;28;20430;-65
2023/01/10 04:24:11;;;;;;;0.20;0.20;;;5.60;66.80;;;;;;5007932;28;20184;-64
2023/01/10 04:26:37;;;;;;;0.10;0.10;;;5.70;64.30;;;;;;5021925;28;20199;-66
2023/01/10 04:29:04;;;;;;;0.10;0.10;;;5.60;68.80;;;;;;5014495;28;20426;-65
2023/01/10 04:31:31;;;;;;;0.27;0.17;;;5.60;70.10;;;;;;5022084;28;20605;-66
2023/01/10 04:33:56;;;;;;;0.20;0.20;;;5.50;71.30;;;;;;5021932;28;20479;-65
2023/01/10 04:36:22;;;;;;;0.20;0.20;;;5.60;66.20;;;;;;5017224;28;20436;-66
2023/01/10 04:38:48;;;;;;;0.40;0.20;;;5.60;69.00;;;;;;5005453;28;20219;-65
2023/01/10 04:41:13;;;;;;;1.30;0.10;;;5.50;63.00;;;;;;5022897;28;20223;-66
2023/01/10 04:43:39;;;;;;;0.13;0.10;;;5.60;67.80;;;;;;4998618;28;20274;-66
2023/01/10 04:46:05;;;;;;;0.20;0.20;;;5.50;68.70;;;;;;5004714;28;20183;-66
2023/01/10 04:48:30;;;;;;;0.10;0.10;;;5.50;71.00;;;;;;5011825;28;20196;-66
2023/01/10 04:50:56;;;;;;;0.40;0.20;;;5.50;65.90;;;;;;5009735;28;20881;-65
2023/01/10 04:53:22;;;;;;;1.03;0.40;;;5.60;64.30;;;;;;5021684;28;20238;-65
2023/01/10 04:55:48;;;;;;;0.20;0.20;;;5.60;67.20;;;;;;5018288;28;20218;-68
2023/01/10 04:58:13;;;;;;;0.20;0.20;;;5.70;64.70;;;;;;5006751;28;20227;-67
2023/01/10 05:00:39;;;;;;;0.10;0.10;;;5.80;67.80;;;;;;5007670;28;20236;-65
2023/01/10 05:03:05;;;;;;;0.13;0.13;;;5.70;67.10;;;;;;5019449;28;20184;-66
2023/01/10 05:05:31;;;;;;;0.10;0.10;;;5.70;65.20;;;;;;5013945;28;20270;-66
2023/01/10 05:07:57;;;;;;;0.30;0.23;;;5.60;67.80;;;;;;5002759;28;20585;-66
2023/01/10 05:10:23;;;;;;;0.50;0.20;;;5.60;65.30;;;;;;5023722;28;20192;-65
2023/01/10 05:12:49;;;;;;;0.17;0.17;;;5.70;64.70;;;;;;5002020;28;20188;-66
2023/01/10 05:15:15;;;;;;;0.47;0.20;;;5.60;66.80;;;;;;5006373;28;20277;-64
2023/01/10 05:17:40;;;;;;;0.20;0.20;;;5.60;69.90;;;;;;5020800;28;20196;-64
2023/01/10 05:20:07;;;;;;;0.20;0.20;;;5.60;65.90;;;;;;5028418;28;20684;-66
2023/01/10 05:22:33;;;;;;;0.13;0.13;;;5.70;63.20;;;;;;5023022;28;20187;-65
2023/01/10 05:24:58;;;;;;;0.20;0.20;;;5.70;64.70;;;;;;5018615;28;20443;-66
2023/01/10 05:27:24;;;;;;;0.43;0.20;;;5.80;65.50;;;;;;5026315;28;20193;-65
2023/01/10 05:29:50;;;;;;;0.20;0.20;;;5.70;64.30;;;;;;5045988;28;20198;-65
2023/01/10 05:32:16;;;;;;;0.10;0.10;;;5.70;66.60;;;;;;5016676;28;20206;-65
2023/01/10 05:34:42;;;;;;;0.20;0.20;;;5.70;68.00;;;;;;5016678;28;20199;-65
2023/01/10 05:37:08;;;;;;;0.20;0.20;;;5.70;66.00;;;;;;5024575;28;20199;-66
2023/01/10 05:39:33;;;;;;;0.17;0.17;;;5.70;66.60;;;;;;5012817;28;20477;-66
2023/01/10 05:41:59;;;;;;;0.13;0.13;;;5.70;68.30;;;;;;5021698;28;20187;-66
2023/01/10 05:44:25;;;;;;;1.33;0.20;;;5.70;70.40;;;;;;5016476;28;20183;-65
2023/01/10 05:46:51;;;;;;;0.20;0.20;;;5.80;68.20;;;;;;5014151;28;20181;-65
2023/01/10 05:49:16;;;;;;;0.20;0.20;;;5.70;63.00;;;;;;4997769;28;20187;-65
2023/01/10 05:51:42;;;;;;;0.27;0.27;;;5.80;65.10;;;;;;5005683;28;20553;-65
2023/01/10 05:54:08;;;;;;;0.10;0.10;;;5.80;62.50;;;;;;5022146;28;20187;-65
2023/01/10 05:56:34;;;;;;;0.53;0.20;;;5.80;63.20;;;;;;5040086;28;20274;-64
2023/01/10 05:58:59;;;;;;;0.43;0.20;;;5.90;64.20;;;;;;5028996;28;20223;-65
2023/01/10 06:01:25;;;;;;;0.10;0.10;;;5.90;62.20;;;;;;5014101;28;20292;-68
2023/01/10 06:03:51;;;;;;;1.30;0.20;;;5.80;67.70;;;;;;5010124;28;20190;-67
2023/01/10 06:06:17;;;;;;;0.20;0.20;;;5.70;70.50;;;;;;5012182;28;20249;-70
2023/01/10 06:08:42;;;;;;;0.20;0.20;;;5.80;63.00;;;;;;4995607;28;20495;-69
2023/01/10 06:11:08;;;;;;;0.30;0.30;;;5.80;68.40;;;;;;5010801;28;20183;-68
2023/01/10 06:13:34;;;;;;;0.30;0.20;;;5.70;70.10;;;;;;5001755;28;20308;-70
2023/01/10 06:15:59;;;;;;;0.30;0.30;;;5.70;67.60;;;;;;5014996;28;20191;-69
2023/01/10 06:18:25;;;;;;;0.20;0.20;;;5.70;70.00;;;;;;5013255;28;20219;-69
2023/01/10 06:20:51;;;;;;;0.20;0.20;;;5.80;66.30;;;;;;5008158;28;20215;-70
2023/01/10 06:23:16;;;;;;;0.20;0.20;;;5.80;67.50;;;;;;5008756;28;20224;-70
2023/01/10 06:25:42;;;;;;;2.93;0.50;;;5.80;68.20;;;;;;5027979;28;20199;-69
2023/01/10 06:28:10;;;;;;;0.40;0.33;;;5.70;67.40;;;;;;5040974;28;20187;-70
2023/01/10 06:30:36;;;;;;;1.93;0.40;;;5.80;63.00;;;;;;5017787;28;20221;-69
2023/01/10 06:33:04;;;;;;;0.27;0.27;;;5.80;66.90;;;;;;5017371;28;20420;-69
2023/01/10 06:35:30;;;;;;;0.17;0.17;;;5.80;68.10;;;;;;5042647;28;20193;-69
2023/01/10 06:37:56;;;;;;;0.17;0.17;;;5.70;64.00;;;;;;5021396;28;20430;-69
2023/01/10 06:40:22;;;;;;;0.63;0.40;;;5.80;65.60;;;;;;5027279;28;20195;-69
2023/01/10 06:42:48;;;;;;;0.20;0.20;;;5.80;65.60;;;;;;5022160;28;20420;-69
2023/01/10 06:45:14;;;;;;;0.30;0.30;;;5.70;67.80;;;;;;5016033;28;20191;-69
2023/01/10 06:47:40;;;;;;;0.23;0.23;;;5.80;68.70;;;;;;5020418;28;20426;-69
2023/01/10 06:50:06;;;;;;;0.80;0.30;;;5.70;68.90;;;;;;5010430;28;20181;-69
2023/01/10 06:52:32;;;;;;;0.27;0.27;;;5.80;67.10;;;;;;5013836;28;20193;-69
2023/01/10 06:54:58;;;;;;;0.30;0.30;;;5.80;66.80;;;;;;5024548;28;20469;-69
2023/01/10 06:57:23;;;;;;;0.33;0.33;;;5.80;66.50;;;;;;5023594;28;20442;-69
2023/01/10 06:59:49;;;;;;;0.30;0.30;;;5.70;69.90;;;;;;5009985;28;20220;-71
2023/01/10 07:02:15;;;;;;;0.30;0.30;;;5.70;66.30;;;;;;5004670;28;20196;-70
2023/01/10 07:04:40;;;;;;;0.20;0.20;;;5.70;69.00;;;;;;5012934;28;20188;-71
2023/01/10 07:07:06;;;;;;;0.20;0.20;;;5.70;69.10;;;;;;5009215;28;20235;-71
2023/01/10 07:09:32;;;;;;;0.27;0.27;;;5.80;63.50;;;;;;5004210;28;20188;-69
2023/01/10 07:11:57;;;;;;;0.50;0.50;;;5.90;68.30;;;;;;4998964;28;20188;-69
2023/01/10 07:14:23;;;;;;;0.23;0.23;;;5.80;66.90;;;;;;5027948;28;20195;-70
2023/01/10 07:16:49;;;;;;;0.10;0.10;;;5.80;65.60;;;;;;5012342;28;20190;-70
2023/01/10 07:19:16;;;;;;;0.20;0.20;;;5.80;69.50;;;;;;5024117;28;20223;-70
2023/01/10 07:21:42;;;;;;;1.00;0.30;;;5.70;71.40;;;;;;5008676;28;20188;-70
2023/01/10 07:24:08;;;;;;;1.50;0.30;;;5.80;69.00;;;;;;5014240;28;20477;-70
2023/01/10 07:26:34;;;;;;;0.40;0.20;;;5.80;64.00;;;;;;5020059;28;20461;-70
2023/01/10 07:29:00;;;;;;;0.10;0.10;;;5.90;66.70;;;;;;5007399;28;20255;-70
2023/01/10 07:31:26;;;;;;;0.20;0.20;;;5.80;68.00;;;;;;5013752;28;20515;-70
2023/01/10 07:33:52;;;;;;;0.40;0.30;;;5.90;66.30;;;;;;5016477;28;20198;-70
2023/01/10 07:36:18;;;;;;;0.20;0.20;;;5.90;69.00;;;;;;5014783;28;20229;-70
2023/01/10 07:38:44;;;;;;;1.80;0.30;;;5.90;69.90;;;;;;5014960;28;20291;-68
2023/01/10 07:41:09;;;;;;;0.50;0.20;;;5.80;64.90;;;;;;5012649;28;20513;-68
2023/01/10 07:43:35;;;;;;;0.30;0.30;;;5.90;63.50;;;;;;5000960;28;20187;-68
2023/01/10 07:46:03;;;;;;;0.30;0.30;;;5.90;70.00;;;;;;5022171;28;20184;-68
2023/01/10 07:48:29;;;;;;;0.53;0.30;;;5.80;67.20;;;;;;5018968;28;20422;-68
2023/01/10 07:50:56;;;;;;;3.70;0.40;;;5.90;69.90;;;;;;5025194;28;20453;-66
2023/01/10 07:53:22;;;;;;;0.40;0.40;;;5.90;71.60;;;;;;5010250;28;20422;-67
2023/01/10 07:55:49;;;;;;;1.27;0.70;;;5.90;66.50;;;;;;5013660;28;20515;-66
2023/01/10 07:58:14;;;;;;;0.37;0.37;;;6.00;68.70;;;;;;5005674;28;20523;-67
2023/01/10 08:00:40;;;;;;;0.20;0.20;;;6.00;68.60;;;;;;5017434;28;20543;-67
2023/01/10 08:03:06;;;;;;;0.60;0.20;;;6.20;63.30;;;;;;5010168;28;20249;-67
2023/01/10 08:05:32;;;;;;;0.33;0.30;;;6.10;68.30;;;;;;5012871;28;20583;-67
2023/01/10 08:08:09;;;;;;;0.47;0.30;;;6.10;62.10;;;;;;5018557;28;20230;-67
2023/01/10 08:10:37;;;;;;;0.63;0.40;;;6.10;63.20;;;;;;5014214;28;20446;-68
2023/01/10 08:13:03;;;;;;;0.40;0.40;;;6.10;66.50;;;;;;5012409;28;20434;-67
2023/01/10 08:15:29;;;;;;;1.40;0.30;;;6.10;67.00;;;;;;5017832;28;20438;-67
2023/01/10 08:17:59;;;;;;;0.50;0.40;;;6.10;65.10;;;;;;5025611;28;20221;-67
2023/01/10 08:20:25;;;;;;;0.53;0.30;;;6.10;69.30;;;;;;5021336;28;20291;-67
2023/01/10 08:22:51;;;;;;;2.17;0.47;;;6.10;70.30;;;;;;5009341;28;20439;-67
2023/01/10 08:25:16;;;;;;;0.10;0.10;;;6.10;70.30;;;;;;5002970;28;20206;-67
2023/01/10 08:27:42;;;;;;;0.40;0.40;;;6.10;69.50;;;;;;5018417;28;20179;-67
2023/01/10 08:30:09;;;;;;;0.50;0.50;;;6.20;69.40;;;;;;5007769;28;20187;-67
2023/01/10 08:32:34;;;;;;;0.43;0.40;;;6.20;68.80;;;;;;5016113;28;20195;-65
2023/01/10 08:35:00;;;;;;;0.20;0.20;;;6.30;63.80;;;;;;5004013;28;20924;-68
2023/01/10 08:37:26;;;;;;;0.50;0.50;;;6.30;69.10;;;;;;5016066;28;20199;-67
2023/01/10 08:39:51;;;;;;;0.20;0.20;;;6.30;66.30;;;;;;5010486;28;20230;-68
2023/01/10 08:42:17;;;;;;;0.27;0.27;;;6.30;65.70;;;;;;4995570;28;20655;-68
2023/01/10 08:44:44;;;;;;;0.23;0.20;;;6.30;65.80;;;;;;5009027;28;20275;-68
2023/01/10 08:47:09;;;;;;;1.60;0.30;;;6.40;63.50;;;;;;5017261;28;20197;-68
2023/01/10 08:49:35;;;;;;;0.20;0.20;;;6.40;61.70;;;;;;5019316;28;20512;-70
2023/01/10 08:52:02;;;;;;;2.83;0.30;;;6.50;68.50;;;;;;5011370;28;20202;-70
2023/01/10 08:54:27;;;;;;;0.20;0.20;;;6.50;60.70;;;;;;5021559;28;20273;-70
2023/01/10 08:56:53;;;;;;;0.30;0.30;;;6.60;68.10;;;;;;5016538;28;20510;-70
2023/01/10 08:59:19;;;;;;;1.47;0.33;;;6.60;67.70;;;;;;4999247;28;20328;-70
2023/01/10 09:01:45;;;;;;;1.50;0.30;;;6.60;66.40;;;;;;5011769;28;20198;-70
2023/01/10 09:04:10;;;;;;;0.60;0.30;;;6.70;62.60;;;;;;5026343;28;20194;-70
2023/01/10 09:06:36;;;;;;;0.33;0.30;;;6.70;62.00;;;;;;5021379;28;20195;-70
2023/01/10 09:09:02;;;;;;;1.00;0.60;;;6.70;62.10;;;;;;5014444;28;20238;-70
2023/01/10 09:11:28;;;;;;;0.63;0.63;;;6.80;65.00;;;;;;5016222;28;20291;-70
2023/01/10 09:13:54;;;;;;;1.10;0.33;;;6.80;62.10;;;;;;5027824;28;20187;-71
2023/01/10 09:16:20;;;;;;;0.70;0.30;;;6.80;63.00;;;;;;5012775;28;20202;-75
2023/01/10 09:18:45;;;;;;;0.20;0.20;;;6.80;67.80;;;;;;5013284;28;20198;-73
2023/01/10 09:21:11;;;;;;;0.40;0.40;;;6.70;65.60;;;;;;5023348;28;20184;-73
2023/01/10 09:23:38;;;;;;;1.20;0.30;;;6.70;62.70;;;;;;5014657;28;20194;-74
2023/01/10 09:26:04;;;;;;;0.53;0.40;;;6.70;70.60;;;;;;5018233;28;20211;-67
2023/01/10 09:28:30;;;;;;;0.70;0.70;;;6.80;67.60;;;;;;5010311;28;20197;-74
2023/01/10 09:30:56;;;;;;;0.10;0.10;;;6.90;69.80;;;;;;4998833;28;20191;-73
2023/01/10 09:33:22;;;;;;;0.27;0.27;;;7.00;64.00;;;;;;5009723;28;20642;-74
2023/01/10 09:35:48;;;;;;;0.40;0.33;;;7.00;67.00;;;;;;5015384;28;20222;-74
2023/01/10 09:38:18;;;;;;;0.50;0.37;;;7.10;64.50;;;;;;5001302;28;20264;-73
2023/01/10 09:41:11;;;;;;;0.77;0.30;;;7.20;64.90;;;;;;5018782;28;20213;-74
2023/01/10 09:44:03;;;;;;;0.43;0.33;;;7.10;69.50;;;;;;5013298;28;20192;-74
2023/01/10 09:47:01;;;;;;;0.20;0.20;;;7.20;66.00;;;;;;5025271;28;20258;-73
2023/01/10 09:49:33;;;;;;;0.23;0.23;;;7.20;59.60;;;;;;5019691;28;20203;-73
2023/01/10 09:52:01;;;;;;;0.23;0.23;;;7.50;62.50;;;;;;5030445;28;20187;-73
2023/01/10 09:54:37;;;;;;;0.73;0.50;;;7.50;63.60;;;;;;5018967;28;20219;-73
2023/01/10 09:57:03;;;;;;;0.73;0.30;;;7.60;59.90;;;;;;5036422;28;20194;-74
2023/01/10 09:59:37;;;;;;;0.40;0.40;;;7.50;63.50;;;;;;5006645;28;20222;-74
2023/01/10 10:02:31;;;;;;;2.53;0.40;;;7.60;67.00;;;;;;5021292;28;20192;-75
2023/01/10 10:05:17;;;;;;;0.47;0.43;;;7.40;63.50;;;;;;5009703;28;20241;-72
2023/01/10 10:07:43;;;;;;;0.43;0.20;;;7.50;58.60;;;;;;5023351;28;20227;-71
2023/01/10 10:10:20;;;;;;;0.30;0.20;;;7.50;62.00;;;;;;5015658;28;20214;-72
2023/01/10 10:13:30;;;;;;;0.30;0.30;;;7.60;60.90;;;;;;5032690;28;20225;-72
2023/01/10 10:16:10;;;;;;;0.30;0.30;;;7.50;61.80;;;;;;5000691;28;20305;-71
2023/01/10 10:19:20;;;;;;;0.23;0.23;;;7.50;61.10;;;;;;5023935;28;20261;-72
2023/01/10 10:22:05;;;;;;;0.20;0.20;;;7.40;61.30;;;;;;5016541;28;20195;-72
2023/01/10 10:25:03;;;;;;;0.30;0.20;;;7.40;63.00;;;;;;5020046;28;20302;-71
2023/01/10 10:27:39;;;;;;;0.20;0.20;;;7.50;61.40;;;;;;5034161;28;20186;-71
2023/01/10 10:30:17;;;;;;;0.20;0.20;;;7.60;57.80;;;;;;5033694;28;20604;-74
2023/01/10 10:33:11;;;;;;;0.40;0.27;;;7.60;56.00;;;;;;5020310;28;20184;-74
2023/01/10 10:35:54;;;;;;;0.30;0.30;;;7.70;55.30;;;;;;5015956;28;20187;-74
2023/01/10 10:38:30;;;;;;;1.03;0.50;;;7.80;60.30;;;;;;5019937;28;20210;-74
2023/01/10 10:40:58;;;;;;;0.20;0.20;;;7.90;56.80;;;;;;5033035;28;20199;-72
2023/01/10 10:43:30;;;;;;;1.33;0.50;;;7.80;60.50;;;;;;5038906;28;20188;-72
2023/01/10 10:46:02;;;;;;;1.20;0.10;;;7.80;56.90;;;;;;5035542;28;20233;-72
2023/01/10 10:48:35;;;;;;;0.30;0.30;;;8.00;56.10;;;;;;5021765;28;20192;-72
2023/01/10 10:51:14;;;;;;;0.20;0.20;;;8.00;56.20;;;;;;5027446;28;20254;-72
2023/01/10 10:53:40;;;;;;;0.23;0.23;;;8.00;56.60;;;;;;5030211;28;20292;-72
2023/01/10 10:56:12;;;;;;;0.43;0.30;;;8.00;58.70;;;;;;4997707;28;20187;-72
2023/01/10 10:58:40;;;;;;;0.30;0.30;;;8.10;56.70;;;;;;5028963;28;20260;-73
2023/01/10 11:01:12;;;;;;;0.27;0.23;;;8.20;56.70;;;;;;5032846;28;20194;-73
2023/01/10 11:03:45;;;;;;;0.40;0.40;;;8.10;56.80;;;;;;5019298;28;20237;-72
2023/01/10 11:06:13;;;;;;;0.10;0.10;;;8.10;57.30;;;;;;5034881;28;20645;-72
2023/01/10 11:08:44;;;;;;;0.43;0.30;;;8.30;56.10;;;;;;5033219;28;20235;-72
2023/01/10 11:11:44;;;;;;;0.27;0.27;;;8.30;54.60;;;;;;5028417;28;20258;-72
2023/01/10 11:14:11;;;;;;;0.23;0.23;;;8.30;56.10;;;;;;5013058;28;20194;-71
2023/01/10 11:16:43;;;;;;;0.30;0.30;;;8.30;54.50;;;;;;5048461;28;20214;-71
2023/01/10 11:19:21;;;;;;;0.30;0.30;;;8.40;56.20;;;;;;5046551;28;20198;-72
2023/01/10 11:21:54;;;;;;;0.20;0.20;;;8.40;55.10;;;;;;5027676;28;20199;-71
2023/01/10 11:24:38;;;;;;;0.30;0.30;;;8.40;54.50;;;;;;5018615;28;20684;-71
2023/01/10 11:27:15;;;;;;;0.40;0.20;;;8.50;53.70;;;;;;5046957;28;20190;-71
2023/01/10 11:29:55;;;;;;;0.30;0.30;;;8.80;52.00;;;;;;5026769;28;20266;-70
2023/01/10 11:32:27;;;;;;;0.30;0.30;;;8.80;52.80;;;;;;5031140;28;20189;-71
2023/01/10 11:34:57;;;;;;;0.67;0.40;;;8.80;49.00;;;;;;5015553;28;20227;-71
2023/01/10 11:37:31;;;;;;;1.03;0.67;;;8.90;49.00;;;;;;5016357;28;20206;-71
2023/01/10 11:40:27;;;;;;;0.60;0.40;;;8.90;49.70;;;;;;5037419;28;20211;-71
2023/01/10 11:42:55;;;;;;;0.77;0.33;;;9.00;49.30;;;;;;5013571;28;20192;-71
2023/01/10 11:45:26;;;;;;;0.30;0.30;;;9.00;48.10;;;;;;5007308;28;20241;-71
2023/01/10 11:48:08;;;;;;;0.70;0.40;;;8.90;47.90;;;;;;5029976;28;20184;-71
2023/01/10 11:50:39;;;;;;;0.30;0.30;;;9.00;47.70;;;;;;5030383;28;20190;-71
2023/01/10 11:53:20;;;;;;;0.30;0.30;;;8.90;49.20;;;;;;5032671;28;20198;-70
2023/01/10 11:55:47;;;;;;;1.70;0.30;;;9.00;47.60;;;;;;5035198;28;20194;-70
2023/01/10 11:58:14;;;;;;;1.17;0.40;;;9.10;47.80;;;;;;5034886;28;20246;-72
2023/01/10 12:00:48;;;;;;;0.20;0.20;;;9.00;47.70;;;;;;5005496;28;20220;-71
2023/01/10 12:03:28;;;;;;;0.20;0.20;;;9.00;47.70;;;;;;5013043;28;20265;-73
2023/01/10 12:06:27;;;;;;;0.40;0.30;;;9.00;48.20;;;;;;5025006;28;20214;-71
2023/01/10 12:08:55;;;;;;;0.20;0.20;;;9.00;48.30;;;;;;5014741;28;20235;-72
2023/01/10 12:11:30;;;;;;;0.50;0.40;;;9.00;48.50;;;;;;5019744;28;20194;-69
2023/01/10 12:14:01;;;;;;;1.13;0.50;;;8.90;46.50;;;;;;5017164;28;20249;-70
2023/01/10 12:16:32;;;;;;;0.20;0.20;;;8.90;47.00;;;;;;5015389;28;20192;-71
2023/01/10 12:19:06;;;;;;;0.27;0.27;;;8.90;47.10;;;;;;5020259;28;20216;-71
2023/01/10 12:21:44;;;;;;;0.20;0.20;;;9.00;47.30;;;;;;5037440;28;20190;-72
2023/01/10 12:24:30;;;;;;;0.20;0.20;;;8.90;47.10;;;;;;5041930;28;20186;-72
2023/01/10 12:26:58;;;;;;;1.43;0.50;;;9.00;46.90;;;;;;5023255;28;20275;-72
2023/01/10 12:29:28;;;;;;;0.20;0.20;;;9.00;46.70;;;;;;5026386;28;20199;-72
2023/01/10 12:31:56;;;;;;;0.20;0.20;;;9.00;46.00;;;;;;5014618;28;20195;-72
2023/01/10 12:34:26;;;;;;;0.67;0.43;;;8.90;46.00;;;;;;5017001;28;20305;-72
2023/01/10 12:37:17;;;;;;;0.33;0.33;;;8.90;46.10;;;;;;5023606;28;20191;-71
2023/01/10 12:39:52;;;;;;;0.40;0.40;;;8.90;46.60;;;;;;5045936;28;20273;-72
2023/01/10 12:45:22;;;;;;;0.80;0.20;;;8.90;46.70;;;;;;5022022;28;20181;-72
2023/01/10 12:48:04;;;;;;;0.30;0.30;;;8.90;46.40;;;;;;5013389;28;20184;-72
2023/01/10 12:50:54;;;;;;;0.40;0.40;;;8.90;45.30;;;;;;5023087;28;20179;-71
2023/01/10 12:53:30;;;;;;;0.30;0.30;;;8.90;45.90;;;;;;5014056;28;20219;-71
2023/01/10 12:55:59;;;;;;;0.23;0.23;;;8.80;46.90;;;;;;5013803;28;20438;-71
2023/01/10 12:58:37;;;;;;;2.13;0.40;;;8.70;46.50;;;;;;5014914;28;20203;-71
2023/01/10 13:01:05;;;;;;;0.40;0.40;;;8.80;46.20;;;;;;5024268;28;20210;-72
2023/01/10 13:03:33;;;;;;;0.70;0.70;;;8.80;47.30;;;;;;5022826;28;20183;-72
2023/01/10 13:06:00;;;;;;;0.80;0.80;;;8.60;46.90;;;;;;5019293;28;20184;-71
2023/01/10 13:08:32;;;;;;;0.30;0.30;;;8.70;46.90;;;;;;5027735;28;20253;-71
2023/01/10 13:10:59;;;;;;;0.20;0.20;;;8.50;47.40;;;;;;5019353;28;20438;-71
2023/01/10 13:13:50;;;;;;;0.60;0.50;;;8.40;47.70;;;;;;5025976;28;20187;-71
2023/01/10 13:16:28;;;;;;;0.37;0.37;;;8.40;48.40;;;;;;5021083;28;20439;-71
2023/01/10 13:19:10;;;;;;;0.50;0.50;;;8.40;48.10;;;;;;5030943;28;20214;-71
2023/01/10 13:21:40;;;;;;;1.80;0.47;;;8.40;48.40;;;;;;5024450;28;20413;-72
2023/01/10 13:24:22;;;;;;;0.30;0.30;;;8.40;49.20;;;;;;5037021;28;20190;-71
2023/01/10 13:27:00;;;;;;;0.30;0.30;;;8.30;48.90;;;;;;5024975;28;20202;-71
2023/01/10 13:29:41;;;;;;;0.40;0.33;;;8.30;48.50;;;;;;5030030;28;20440;-71
2023/01/10 13:32:29;;;;;;;0.57;0.30;;;8.30;48.20;;;;;;5039196;28;20520;-72
2023/01/10 13:35:09;;;;;;;1.03;0.23;;;8.20;48.60;;;;;;5019907;28;20183;-71
2023/01/10 13:37:38;;;;;;;1.53;0.20;;;8.20;49.00;;;;;;5021408;28;20187;-71
2023/01/10 13:40:05;;;;;;;0.77;0.30;;;8.10;49.20;;;;;;5027971;28;20469;-71
2023/01/10 13:45:19;;;;;;;0.20;0.20;;;8.20;48.60;;;;;;5040982;28;20236;-71
2023/01/10 13:47:46;;;;;;;1.00;0.43;;;8.10;48.60;;;;;;5017657;28;20188;-71
2023/01/10 13:50:35;;;;;;;1.10;1.00;;;8.10;49.80;;;;;;5031126;28;20183;-71
2023/01/10 13:53:04;;;;;;;0.50;0.50;;;8.20;48.60;;;;;;5030544;28;20215;-70